Time;durP1;ratioP1;P1;durP2;ratioP2;P2;SDS_P1;SDS_P2;PMS_P1;PMS_P2;Temp;Humidity;BMP_temperature;BMP_pressure;BME280_temperature;BME280_humidity;BME280_pressure;Samples;Min_cycle;Max_cycle;Signal;HPM_P1;HPM_P2
2022/09/21 00:02:20;;;;;;;1.25;1.00;;;20.40;71.10;;;;;;5092174;28;20067;-76
2022/09/21 00:04:45;;;;;;;2.90;0.93;;;20.40;71.00;;;;;;5092262;28;20035;-77
2022/09/21 00:07:12;;;;;;;1.88;1.10;;;20.40;71.40;;;;;;5092238;28;20024;-76
2022/09/21 00:09:37;;;;;;;2.90;1.00;;;20.40;71.30;;;;;;5077323;28;20100;-76
2022/09/21 00:12:03;;;;;;;2.00;1.00;;;20.40;71.40;;;;;;5071796;28;20112;-76
2022/09/21 00:14:30;;;;;;;1.65;1.10;;;20.40;71.30;;;;;;5071014;28;20024;-76
2022/09/21 00:16:55;;;;;;;6.35;1.40;;;20.40;71.20;;;;;;5088937;28;20015;-76
2022/09/21 00:19:21;;;;;;;3.70;1.30;;;20.40;71.40;;;;;;5111633;28;20092;-76
2022/09/21 00:21:47;;;;;;;2.35;1.27;;;20.40;71.30;;;;;;5111354;28;20437;-76
2022/09/21 00:24:13;;;;;;;3.30;1.40;;;20.40;71.50;;;;;;5111149;28;20134;-76
2022/09/21 00:26:39;;;;;;;5.13;1.27;;;20.40;71.50;;;;;;5111001;28;20114;-76
2022/09/21 00:29:04;;;;;;;3.40;1.48;;;20.40;71.50;;;;;;5112446;28;20034;-75
2022/09/21 00:31:30;;;;;;;5.03;1.23;;;20.40;71.50;;;;;;5111256;28;20444;-76
2022/09/21 00:33:57;;;;;;;2.42;1.00;;;20.40;71.60;;;;;;5094141;28;20061;-76
2022/09/21 00:36:23;;;;;;;8.55;1.35;;;20.40;71.70;;;;;;5109556;28;20430;-75
2022/09/21 00:38:50;;;;;;;3.10;1.55;;;20.40;71.80;;;;;;5110603;28;20054;-75
2022/09/21 00:41:16;;;;;;;5.13;1.23;;;20.40;71.80;;;;;;5111216;28;20015;-75
2022/09/21 00:43:45;;;;;;;2.70;1.48;;;20.40;71.80;;;;;;5113915;28;20069;-76
2022/09/21 00:46:34;;;;;;;3.97;1.42;;;20.40;71.80;;;;;;5115215;28;20394;-76
2022/09/21 00:49:00;;;;;;;3.30;1.30;;;20.40;71.90;;;;;;5116172;28;20035;-74
2022/09/21 00:51:25;;;;;;;1.92;1.10;;;20.40;71.80;;;;;;5116242;28;20065;-75
2022/09/21 00:53:53;;;;;;;2.83;1.67;;;20.40;72.00;;;;;;5116059;28;20028;-76
2022/09/21 00:56:19;;;;;;;8.60;1.40;;;20.40;71.80;;;;;;5114872;28;20102;-76
2022/09/21 00:58:46;;;;;;;5.45;1.45;;;20.40;71.80;;;;;;5116307;28;20535;-76
2022/09/21 01:01:14;;;;;;;3.60;1.27;;;20.40;71.90;;;;;;5115947;28;20475;-76
2022/09/21 01:03:44;;;;;;;4.38;1.23;;;20.30;71.90;;;;;;5114622;28;20043;-76
2022/09/21 01:06:11;;;;;;;3.75;1.10;;;20.30;71.90;;;;;;5115054;28;20098;-76
2022/09/21 01:08:37;;;;;;;4.90;1.40;;;20.30;71.90;;;;;;5103149;28;20028;-76
2022/09/21 01:11:21;;;;;;;1.75;1.25;;;20.30;71.90;;;;;;5074014;28;20531;-76
2022/09/21 01:14:10;;;;;;;3.88;1.30;;;20.30;71.90;;;;;;5075077;28;20112;-76
2022/09/21 01:16:55;;;;;;;3.25;1.30;;;20.30;71.90;;;;;;5085662;28;20037;-77
2022/09/21 01:19:25;;;;;;;3.95;1.20;;;20.30;71.80;;;;;;5114577;28;20020;-76
2022/09/21 01:22:17;;;;;;;3.60;1.50;;;20.30;71.80;;;;;;5115530;28;20011;-76
2022/09/21 01:25:17;;;;;;;4.47;1.20;;;20.30;71.80;;;;;;5115527;28;20026;-76
2022/09/21 01:28:02;;;;;;;1.98;1.27;;;20.30;71.70;;;;;;5114074;28;20015;-76
2022/09/21 01:30:28;;;;;;;2.55;1.10;;;20.30;71.80;;;;;;5098949;28;20019;-76
2022/09/21 01:33:28;;;;;;;4.43;1.58;;;20.30;71.90;;;;;;5113986;28;20099;-77
2022/09/21 01:35:56;;;;;;;2.72;1.17;;;20.30;71.80;;;;;;5114307;28;20055;-76
2022/09/21 01:38:35;;;;;;;2.42;1.50;;;20.20;71.80;;;;;;5097078;28;20012;-77
2022/09/21 01:41:02;;;;;;;3.63;1.30;;;20.30;71.90;;;;;;5097867;28;20023;-76
2022/09/21 01:43:39;;;;;;;4.13;1.45;;;20.20;71.90;;;;;;5097012;28;20019;-76
2022/09/21 01:46:06;;;;;;;6.78;1.17;;;20.30;71.90;;;;;;5097256;28;20020;-76
2022/09/21 01:48:35;;;;;;;3.05;1.23;;;20.20;71.80;;;;;;5097090;28;20036;-76
2022/09/21 01:51:02;;;;;;;3.15;1.40;;;20.20;71.80;;;;;;5097010;28;20047;-76
2022/09/21 01:53:31;;;;;;;3.25;1.48;;;20.20;71.80;;;;;;5113795;28;20030;-76
2022/09/21 01:55:59;;;;;;;2.60;1.42;;;20.20;71.80;;;;;;5112890;28;20024;-76
2022/09/21 01:58:34;;;;;;;1.42;1.20;;;20.20;71.80;;;;;;5113740;28;20012;-76
2022/09/21 02:01:00;;;;;;;9.95;1.52;;;20.20;71.90;;;;;;5113699;28;20566;-77
2022/09/21 02:03:32;;;;;;;3.08;1.20;;;20.20;71.90;;;;;;5113595;28;20052;-76
2022/09/21 02:05:58;;;;;;;;;;;20.20;71.90;;;;;;5097332;28;20031;-76
2022/09/21 02:08:25;;;;;;;2.08;1.30;;;20.20;71.80;;;;;;5107166;28;19912;-76
2022/09/21 02:10:51;;;;;;;2.38;1.35;;;20.20;72.00;;;;;;5073046;28;20090;-76
2022/09/21 02:13:17;;;;;;;2.70;1.15;;;20.20;72.00;;;;;;5072837;28;20427;-76
2022/09/21 02:15:43;;;;;;;2.40;1.20;;;20.20;72.00;;;;;;5072468;28;20567;-76
2022/09/21 02:18:31;;;;;;;1.85;1.23;;;20.20;72.00;;;;;;5111854;28;20095;-75
2022/09/21 02:20:57;;;;;;;2.10;1.25;;;20.20;72.10;;;;;;5113315;28;20116;-75
2022/09/21 02:23:48;;;;;;;3.17;1.40;;;20.20;72.10;;;;;;5096506;28;20089;-76
2022/09/21 02:26:23;;;;;;;2.58;1.08;;;20.20;72.10;;;;;;5113343;28;20102;-76
2022/09/21 02:29:10;;;;;;;2.35;1.30;;;20.20;72.20;;;;;;5096743;28;20107;-76
2022/09/21 02:31:41;;;;;;;3.92;1.17;;;20.20;72.20;;;;;;5114063;28;20487;-76
2022/09/21 02:34:32;;;;;;;4.85;1.65;;;20.20;72.30;;;;;;5113162;28;20028;-76
2022/09/21 02:37:30;;;;;;;3.50;1.20;;;20.20;72.40;;;;;;5113049;28;20111;-76
2022/09/21 02:40:08;;;;;;;7.05;1.25;;;20.20;72.30;;;;;;5098838;28;20020;-76
2022/09/21 02:42:37;;;;;;;1.85;1.13;;;20.20;72.40;;;;;;5097085;28;20027;-76
2022/09/21 02:45:12;;;;;;;2.08;1.23;;;20.10;72.30;;;;;;5096124;28;20026;-76
2022/09/21 02:47:52;;;;;;;2.30;1.08;;;20.10;72.30;;;;;;5113821;28;20525;-76
2022/09/21 02:50:40;;;;;;;1.83;1.50;;;20.20;72.40;;;;;;5112569;28;20138;-76
2022/09/21 02:53:05;;;;;;;1.98;1.23;;;20.20;72.40;;;;;;5096362;28;20108;-76
2022/09/21 02:55:31;;;;;;;4.05;1.17;;;20.20;72.40;;;;;;5095633;28;20051;-76
2022/09/21 02:57:57;;;;;;;1.75;1.13;;;20.10;72.40;;;;;;5095663;28;20499;-75
2022/09/21 03:00:23;;;;;;;1.63;1.10;;;20.10;72.40;;;;;;5095612;28;20027;-76
2022/09/21 03:02:48;;;;;;;4.55;1.20;;;20.10;72.40;;;;;;5112257;28;20016;-75
2022/09/21 03:05:14;;;;;;;2.75;1.63;;;20.10;72.50;;;;;;5113369;28;20019;-75
2022/09/21 03:07:40;;;;;;;1.52;1.20;;;20.20;72.40;;;;;;5112246;28;20551;-75
2022/09/21 03:10:07;;;;;;;1.73;1.20;;;20.10;72.40;;;;;;5076386;28;20036;-75
2022/09/21 03:12:32;;;;;;;2.00;1.40;;;20.10;72.40;;;;;;5071606;28;20024;-75
2022/09/21 03:14:59;;;;;;;2.28;1.50;;;20.10;72.40;;;;;;5071519;28;20020;-76
2022/09/21 03:17:25;;;;;;;1.23;1.08;;;20.10;72.40;;;;;;5096979;28;20054;-75
2022/09/21 03:19:53;;;;;;;1.83;1.20;;;20.10;72.40;;;;;;5113070;28;20027;-76
2022/09/21 03:22:23;;;;;;;5.32;1.10;;;20.10;72.40;;;;;;5113317;28;20040;-75
2022/09/21 03:24:48;;;;;;;1.52;0.98;;;20.10;72.40;;;;;;5112987;28;20020;-76
2022/09/21 03:27:18;;;;;;;2.25;1.20;;;20.10;72.40;;;;;;5095205;28;20034;-75
2022/09/21 03:29:44;;;;;;;4.50;1.10;;;20.10;72.40;;;;;;5113139;28;20035;-75
2022/09/21 03:32:10;;;;;;;1.65;1.08;;;20.10;72.50;;;;;;5113324;28;20024;-75
2022/09/21 03:34:35;;;;;;;1.33;1.00;;;20.10;72.50;;;;;;5112627;28;20027;-75
2022/09/21 03:37:02;;;;;;;2.03;1.10;;;20.10;72.40;;;;;;5112938;28;20019;-75
2022/09/21 03:39:28;;;;;;;1.20;1.00;;;20.10;72.50;;;;;;5095011;28;20099;-76
2022/09/21 03:41:56;;;;;;;3.00;1.50;;;20.00;72.40;;;;;;5112932;28;20119;-76
2022/09/21 03:44:23;;;;;;;2.30;1.25;;;20.10;72.40;;;;;;5111853;28;20023;-76
2022/09/21 03:46:51;;;;;;;1.40;1.30;;;20.10;72.40;;;;;;5111726;28;20394;-76
2022/09/21 03:49:17;;;;;;;2.13;1.17;;;20.10;72.40;;;;;;5112784;28;20102;-76
2022/09/21 03:51:43;;;;;;;2.78;1.15;;;20.00;72.40;;;;;;5111729;28;20032;-76
2022/09/21 03:54:09;;;;;;;4.18;1.33;;;20.00;72.40;;;;;;5094939;28;20023;-76
2022/09/21 03:56:34;;;;;;;6.05;1.60;;;20.00;72.40;;;;;;5112557;28;20029;-76
2022/09/21 03:59:00;;;;;;;1.42;1.13;;;20.10;72.40;;;;;;5112670;28;20088;-76
2022/09/21 04:01:26;;;;;;;2.20;1.35;;;20.00;72.40;;;;;;5112549;28;20019;-76
2022/09/21 04:03:51;;;;;;;2.00;1.42;;;20.00;72.40;;;;;;5111373;28;20399;-76
2022/09/21 04:06:17;;;;;;;3.00;1.20;;;20.00;72.40;;;;;;5112876;28;20035;-76
2022/09/21 04:08:43;;;;;;;2.72;1.10;;;20.00;72.40;;;;;;5099724;28;20361;-76
2022/09/21 04:11:16;;;;;;;3.13;1.20;;;20.00;72.40;;;;;;5071999;28;20020;-76
2022/09/21 04:13:42;;;;;;;1.80;1.30;;;20.00;72.30;;;;;;5070826;28;20115;-76
2022/09/21 04:16:08;;;;;;;1.30;0.98;;;20.00;72.30;;;;;;5075644;28;20096;-76
2022/09/21 04:18:35;;;;;;;1.48;1.10;;;20.00;72.40;;;;;;5113066;28;20185;-76
2022/09/21 04:21:00;;;;;;;2.10;1.40;;;20.00;72.40;;;;;;5116903;27;20368;-76
2022/09/21 04:23:26;;;;;;;2.13;1.00;;;20.00;72.30;;;;;;5116862;28;20129;-76
2022/09/21 04:25:52;;;;;;;2.00;1.30;;;20.00;72.40;;;;;;5116630;28;20421;-76
2022/09/21 04:28:18;;;;;;;1.45;0.98;;;20.00;72.40;;;;;;5115723;28;20038;-76
2022/09/21 04:30:44;;;;;;;1.83;1.02;;;20.00;72.30;;;;;;5115245;28;20094;-76
2022/09/21 04:33:09;;;;;;;1.90;1.23;;;20.00;72.30;;;;;;5116710;28;20039;-76
2022/09/21 04:35:35;;;;;;;2.22;1.25;;;20.00;72.30;;;;;;5116421;28;20525;-76
2022/09/21 04:38:01;;;;;;;2.08;1.30;;;20.00;72.30;;;;;;5115355;28;20055;-76
2022/09/21 04:40:27;;;;;;;3.78;1.40;;;20.00;72.30;;;;;;5115487;28;20091;-77
2022/09/21 04:42:52;;;;;;;2.25;1.40;;;20.00;72.30;;;;;;5116257;28;20016;-77
2022/09/21 04:45:21;;;;;;;2.75;1.17;;;20.00;72.30;;;;;;5115001;28;20073;-76
2022/09/21 04:47:47;;;;;;;1.55;1.20;;;20.00;72.30;;;;;;5115137;28;20039;-76
2022/09/21 04:50:13;;;;;;;1.98;1.20;;;20.00;72.40;;;;;;5115103;28;20044;-77
2022/09/21 04:52:39;;;;;;;2.47;1.27;;;20.00;72.30;;;;;;5098056;28;20032;-76
2022/09/21 04:55:05;;;;;;;2.95;1.23;;;20.00;72.30;;;;;;5116078;28;20506;-77
2022/09/21 04:57:31;;;;;;;2.25;1.10;;;20.00;72.30;;;;;;5115035;28;20411;-76
2022/09/21 04:59:56;;;;;;;3.15;1.35;;;20.00;72.30;;;;;;5097643;28;20027;-76
2022/09/21 05:02:22;;;;;;;1.77;1.30;;;20.00;72.40;;;;;;5116215;28;20023;-76
2022/09/21 05:04:48;;;;;;;1.83;1.20;;;20.00;72.40;;;;;;5115876;28;20524;-76
2022/09/21 05:07:14;;;;;;;1.55;1.20;;;20.00;72.30;;;;;;5115953;28;20031;-76
2022/09/21 05:12:24;;;;;;;1.85;1.17;;;19.90;72.30;;;;;;5075366;28;20077;-76
2022/09/21 05:14:50;;;;;;;2.90;1.10;;;20.00;72.40;;;;;;5074615;28;20107;-76
2022/09/21 05:17:15;;;;;;;3.33;1.60;;;19.90;72.30;;;;;;5096848;28;20049;-76
2022/09/21 05:19:41;;;;;;;2.63;1.35;;;19.90;72.40;;;;;;5105372;28;20492;-76
2022/09/21 05:22:07;;;;;;;3.30;1.40;;;19.90;72.40;;;;;;5094458;28;20031;-76
2022/09/21 05:24:32;;;;;;;2.67;1.13;;;19.90;72.30;;;;;;5094098;28;20020;-76
2022/09/21 05:26:58;;;;;;;3.42;1.52;;;19.90;72.40;;;;;;5094908;28;20028;-76
2022/09/21 05:29:24;;;;;;;2.70;1.40;;;19.90;72.40;;;;;;5094130;28;20024;-76
2022/09/21 05:32:15;;;;;;;1.75;1.33;;;19.90;72.40;;;;;;5093344;28;20032;-77
2022/09/21 05:34:44;;;;;;;1.30;1.20;;;19.90;72.30;;;;;;5089367;28;20032;-76
2022/09/21 05:37:34;;;;;;;2.75;1.48;;;19.90;69.90;;;;;;5093777;28;20036;-76
2022/09/21 05:40:00;;;;;;;3.30;1.80;;;19.80;69.20;;;;;;5094743;28;20073;-76
2022/09/21 05:42:26;;;;;;;2.80;1.63;;;19.80;69.30;;;;;;5094822;28;20028;-76
2022/09/21 05:44:54;;;;;;;2.78;1.23;;;19.80;69.30;;;;;;5093238;28;20074;-76
2022/09/21 05:47:34;;;;;;;2.22;1.65;;;19.80;69.20;;;;;;5094666;28;20058;-76
2022/09/21 05:50:45;;;;;;;2.28;1.70;;;19.80;69.20;;;;;;5092875;28;20058;-76
2022/09/21 05:53:18;;;;;;;2.60;1.50;;;19.80;69.40;;;;;;5089923;28;20050;-76
2022/09/21 05:55:43;;;;;;;1.73;1.55;;;19.70;69.00;;;;;;5073065;28;20423;-76
2022/09/21 05:58:12;;;;;;;5.28;1.73;;;19.70;69.00;;;;;;5074024;28;20036;-76
2022/09/21 06:00:48;;;;;;;2.72;1.63;;;19.70;68.90;;;;;;5073069;28;20400;-76
2022/09/21 06:03:27;;;;;;;3.72;1.38;;;19.70;69.10;;;;;;5073924;28;20032;-76
2022/09/21 06:05:52;;;;;;;2.35;1.65;;;19.70;69.00;;;;;;5074130;28;20025;-76
2022/09/21 06:08:18;;;;;;;3.13;1.50;;;19.70;69.10;;;;;;5078530;28;20090;-76
2022/09/21 06:10:44;;;;;;;5.60;2.50;;;19.70;69.10;;;;;;5074079;28;20024;-76
2022/09/21 06:13:10;;;;;;;10.65;2.60;;;19.70;69.20;;;;;;5087458;28;20028;-76
2022/09/21 06:15:38;;;;;;;20.60;3.33;;;19.70;69.20;;;;;;5091331;28;20048;-76
2022/09/21 06:18:07;;;;;;;22.13;4.85;;;19.70;69.30;;;;;;5110422;28;20022;-77
2022/09/21 06:20:32;;;;;;;12.25;3.13;;;19.70;69.40;;;;;;5111609;28;20073;-76
2022/09/21 06:23:05;;;;;;;9.52;2.92;;;19.70;69.60;;;;;;5113639;28;20491;-76
2022/09/21 06:25:31;;;;;;;11.55;3.10;;;19.70;69.50;;;;;;5096150;28;20031;-76
2022/09/21 06:28:12;;;;;;;11.45;3.15;;;19.60;69.50;;;;;;5110381;28;20020;-77
2022/09/21 06:30:39;;;;;;;10.27;3.10;;;19.60;69.70;;;;;;5102216;28;20023;-77
2022/09/21 06:33:05;;;;;;;13.38;3.40;;;19.60;69.80;;;;;;5105245;28;20099;-77
2022/09/21 06:35:32;;;;;;;13.98;3.47;;;19.60;69.80;;;;;;5093981;28;20016;-76
2022/09/21 06:38:05;;;;;;;14.00;3.10;;;19.60;69.90;;;;;;5106262;28;20019;-77
2022/09/21 06:40:31;;;;;;;14.68;3.75;;;19.60;69.90;;;;;;5113911;28;20068;-76
2022/09/21 06:42:57;;;;;;;10.60;3.60;;;19.60;69.90;;;;;;5095564;28;20024;-76
2022/09/21 06:45:24;;;;;;;12.32;3.33;;;19.60;69.90;;;;;;5108234;28;20502;-77
2022/09/21 06:47:49;;;;;;;12.65;3.50;;;19.60;70.00;;;;;;5092380;28;20028;-76
2022/09/21 06:50:15;;;;;;;12.00;3.75;;;19.60;70.00;;;;;;5093303;28;20397;-76
2022/09/21 06:52:40;;;;;;;11.23;3.17;;;19.50;69.80;;;;;;5093621;28;20028;-76
2022/09/21 06:55:08;;;;;;;12.48;3.88;;;19.50;69.70;;;;;;5093277;28;20035;-76
2022/09/21 06:57:33;;;;;;;11.15;3.72;;;19.50;69.80;;;;;;5092139;28;20023;-76
2022/09/21 06:59:59;;;;;;;12.65;3.60;;;19.50;69.70;;;;;;5093262;28;20028;-77
2022/09/21 07:02:25;;;;;;;11.90;3.08;;;19.50;69.70;;;;;;5097376;28;20225;-76
2022/09/21 07:04:51;;;;;;;10.90;3.22;;;19.50;69.70;;;;;;5113699;28;20479;-76
2022/09/21 07:07:17;;;;;;;12.93;3.90;;;19.50;69.80;;;;;;5113485;28;20058;-76
2022/09/21 07:09:43;;;;;;;12.73;3.97;;;19.50;69.70;;;;;;5083824;28;20036;-76
2022/09/21 07:12:08;;;;;;;12.00;3.22;;;19.50;69.80;;;;;;5072807;28;20092;-76
2022/09/21 07:14:34;;;;;;;11.52;3.85;;;19.50;69.60;;;;;;5072704;28;20040;-76
2022/09/21 07:17:00;;;;;;;11.23;3.47;;;19.50;69.70;;;;;;5072559;28;20024;-76
2022/09/21 07:19:25;;;;;;;13.40;3.55;;;19.50;69.80;;;;;;5072823;28;20052;-76
2022/09/21 07:21:54;;;;;;;9.30;3.35;;;19.50;69.80;;;;;;5072620;28;20099;-77
2022/09/21 07:24:19;;;;;;;4.70;2.90;;;19.50;69.80;;;;;;5071373;28;20031;-76
2022/09/21 07:26:45;;;;;;;6.43;3.17;;;19.50;69.80;;;;;;5072516;28;20028;-76
2022/09/21 07:29:11;;;;;;;8.23;3.17;;;19.50;69.90;;;;;;5073175;28;20457;-76
2022/09/21 07:31:36;;;;;;;8.73;3.72;;;19.50;69.90;;;;;;5087891;28;20492;-78
2022/09/21 07:34:02;;;;;;;7.38;2.90;;;19.50;69.90;;;;;;5075177;28;20032;-77
2022/09/21 07:36:28;;;;;;;10.30;3.30;;;19.50;69.90;;;;;;5094961;28;20027;-77
2022/09/21 07:38:53;;;;;;;7.88;3.03;;;19.40;69.80;;;;;;5113406;28;20066;-77
2022/09/21 07:41:19;;;;;;;10.57;3.92;;;19.50;69.90;;;;;;5101787;28;20547;-76
2022/09/21 07:43:46;;;;;;;9.90;3.63;;;19.40;69.80;;;;;;5091327;28;20024;-76
2022/09/21 07:46:13;;;;;;;7.75;3.03;;;19.40;69.80;;;;;;5092998;28;20099;-76
2022/09/21 07:48:39;;;;;;;9.90;3.50;;;19.40;69.80;;;;;;5091491;28;20043;-77
2022/09/21 07:51:06;;;;;;;12.07;3.28;;;19.40;69.80;;;;;;5091610;28;20043;-77
2022/09/21 07:53:33;;;;;;;8.45;3.10;;;19.40;69.80;;;;;;5090799;28;20153;-77
2022/09/21 07:56:03;;;;;;;7.63;2.78;;;19.40;69.80;;;;;;5074809;28;20035;-77
2022/09/21 08:01:12;;;;;;;7.53;3.67;;;19.40;69.80;;;;;;5091584;28;20031;-76
2022/09/21 08:03:38;;;;;;;8.85;3.30;;;19.40;69.80;;;;;;5092607;28;20032;-76
2022/09/21 08:06:04;;;;;;;7.28;2.90;;;19.40;69.80;;;;;;5092668;28;20031;-77
2022/09/21 08:08:29;;;;;;;5.65;3.03;;;19.40;69.90;;;;;;5092124;28;20035;-76
2022/09/21 08:11:00;;;;;;;11.60;3.50;;;19.40;69.90;;;;;;5091210;28;20020;-77
2022/09/21 08:13:26;;;;;;;9.60;2.95;;;19.40;69.80;;;;;;5091645;28;20024;-76
2022/09/21 08:15:58;;;;;;;8.10;3.28;;;19.30;69.80;;;;;;5092558;28;20027;-76
2022/09/21 08:18:24;;;;;;;6.65;2.75;;;19.30;67.40;;;;;;5091288;28;20012;-77
2022/09/21 08:20:57;;;;;;;12.55;3.13;;;19.20;65.80;;;;;;5092794;28;20104;-77
2022/09/21 08:23:23;;;;;;;7.63;3.10;;;19.20;65.90;;;;;;5090997;28;20020;-77
2022/09/21 08:25:48;;;;;;;15.93;2.80;;;19.10;65.80;;;;;;5089348;28;20054;-76
2022/09/21 08:28:15;;;;;;;9.98;2.50;;;19.10;66.20;;;;;;5075636;28;20394;-74
2022/09/21 08:30:41;;;;;;;11.68;3.10;;;19.30;67.00;;;;;;5091177;28;20369;-75
2022/09/21 08:33:07;;;;;;;5.53;2.60;;;19.40;67.30;;;;;;5091368;28;20031;-74
2022/09/21 08:35:33;;;;;;;8.27;2.60;;;19.50;66.80;;;;;;5091372;28;20016;-74
2022/09/21 08:37:59;;;;;;;6.50;2.85;;;19.60;67.10;;;;;;5090860;28;20043;-74
2022/09/21 08:40:24;;;;;;;14.75;2.80;;;19.60;67.50;;;;;;5092434;28;20399;-75
2022/09/21 08:43:03;;;;;;;6.75;2.03;;;19.70;67.50;;;;;;5091349;28;20437;-76
2022/09/21 08:45:49;;;;;;;5.53;2.35;;;19.80;67.40;;;;;;5091265;28;20070;-74
2022/09/21 08:48:27;;;;;;;7.95;3.00;;;19.80;67.30;;;;;;5092053;28;20041;-74
2022/09/21 08:50:55;;;;;;;9.65;2.78;;;19.80;67.10;;;;;;5092306;28;20158;-74
2022/09/21 08:53:21;;;;;;;9.05;2.60;;;19.90;67.00;;;;;;5090910;28;20030;-74
2022/09/21 08:55:47;;;;;;;8.13;2.72;;;20.00;66.90;;;;;;5091006;28;20032;-74
2022/09/21 08:58:27;;;;;;;8.23;2.22;;;20.00;66.80;;;;;;5092324;28;20031;-74
2022/09/21 09:01:24;;;;;;;4.45;2.60;;;20.10;66.80;;;;;;5091236;28;20052;-74
2022/09/21 09:04:15;;;;;;;5.40;2.45;;;20.10;66.70;;;;;;5083537;28;20503;-74
2022/09/21 09:07:03;;;;;;;7.78;2.35;;;20.10;66.50;;;;;;5095872;28;20039;-74
2022/09/21 09:09:28;;;;;;;5.47;2.50;;;20.20;66.40;;;;;;5083368;28;20029;-74
2022/09/21 09:12:06;;;;;;;6.93;2.40;;;20.20;66.20;;;;;;5075593;28;20034;-74
2022/09/21 09:15:06;;;;;;;7.13;2.42;;;20.30;66.20;;;;;;5075652;28;20025;-74
2022/09/21 09:17:35;;;;;;;3.75;2.30;;;20.30;66.00;;;;;;5074439;28;20029;-74
2022/09/21 09:20:43;;;;;;;8.68;2.20;;;20.30;66.00;;;;;;5074318;28;20021;-74
2022/09/21 09:23:19;;;;;;;3.50;2.22;;;20.40;66.00;;;;;;5033166;28;20052;-74
2022/09/21 09:25:48;;;;;;;4.57;2.10;;;20.40;65.90;;;;;;5047536;28;20083;-74
2022/09/21 09:28:29;;;;;;;3.97;2.15;;;20.40;65.80;;;;;;5036505;28;20401;-78
2022/09/21 09:31:13;;;;;;;9.77;2.15;;;20.40;66.10;;;;;;5053185;28;20029;-78
2022/09/21 09:34:17;;;;;;;3.75;1.90;;;20.30;66.00;;;;;;5036274;28;20116;-78
2022/09/21 09:36:47;;;;;;;6.70;2.45;;;20.30;66.30;;;;;;5055784;28;20137;-78
2022/09/21 09:39:14;;;;;;;3.45;2.13;;;20.20;66.40;;;;;;5072930;28;20020;-78
2022/09/21 09:42:30;;;;;;;4.32;2.10;;;20.20;66.50;;;;;;5073088;28;20037;-78
2022/09/21 09:45:27;;;;;;;5.80;1.95;;;20.20;66.70;;;;;;5012807;28;20533;-78
2022/09/21 09:47:57;;;;;;;4.07;2.03;;;20.20;66.70;;;;;;4981343;28;20066;-78
2022/09/21 09:50:43;;;;;;;4.15;2.00;;;20.20;66.80;;;;;;4992988;28;20050;-78
2022/09/21 09:53:11;;;;;;;6.63;2.60;;;20.20;66.90;;;;;;4996906;28;20104;-78
2022/09/21 09:56:02;;;;;;;5.78;2.58;;;20.20;66.90;;;;;;5013021;28;20034;-78
2022/09/21 09:58:38;;;;;;;4.13;2.03;;;20.20;67.00;;;;;;4993487;28;20073;-78
2022/09/21 10:01:04;;;;;;;9.05;2.90;;;20.20;67.00;;;;;;4996346;28;20129;-78
2022/09/21 10:03:29;;;;;;;5.03;2.70;;;20.10;67.10;;;;;;5012947;28;20030;-78
2022/09/21 10:05:55;;;;;;;4.55;2.33;;;20.10;67.10;;;;;;5012798;28;20053;-78
2022/09/21 10:08:43;;;;;;;5.63;3.03;;;20.20;67.30;;;;;;5012570;28;20544;-78
2022/09/21 10:11:13;;;;;;;6.18;3.30;;;20.10;67.50;;;;;;4996740;28;20056;-78
2022/09/21 10:13:41;;;;;;;4.85;2.95;;;20.10;67.60;;;;;;4996567;28;20072;-77
2022/09/21 10:16:20;;;;;;;4.57;2.97;;;20.10;67.80;;;;;;4995578;28;20030;-77
2022/09/21 10:18:57;;;;;;;7.38;3.08;;;20.10;68.00;;;;;;4996257;28;20506;-78
2022/09/21 10:21:23;;;;;;;7.32;3.40;;;20.10;68.00;;;;;;5061886;28;20029;-78
2022/09/21 10:24:03;;;;;;;5.72;3.40;;;20.10;67.90;;;;;;5074476;28;20506;-78
2022/09/21 10:26:34;;;;;;;8.10;3.55;;;20.10;68.00;;;;;;5073085;28;20025;-78
2022/09/21 10:29:21;;;;;;;5.82;3.53;;;20.20;68.00;;;;;;5073178;28;20472;-77
2022/09/21 10:31:55;;;;;;;5.43;2.90;;;20.10;67.90;;;;;;5074210;28;20606;-77
2022/09/21 10:34:21;;;;;;;6.05;3.28;;;20.20;68.00;;;;;;5082310;28;20039;-77
2022/09/21 10:36:53;;;;;;;4.93;3.15;;;20.10;68.00;;;;;;5076278;28;20112;-77
2022/09/21 10:39:29;;;;;;;6.53;3.15;;;20.10;68.10;;;;;;5092847;28;20032;-77
2022/09/21 10:41:59;;;;;;;6.78;3.22;;;20.10;68.00;;;;;;5093094;28;20035;-78
2022/09/21 10:44:27;;;;;;;5.82;3.35;;;20.10;68.00;;;;;;5092880;28;20483;-78
2022/09/21 10:46:53;;;;;;;4.50;3.10;;;20.10;68.00;;;;;;5076488;28;20508;-77
2022/09/21 10:49:24;;;;;;;4.50;3.13;;;20.10;68.20;;;;;;5092474;28;20115;-77
2022/09/21 10:51:51;;;;;;;6.63;3.30;;;20.10;68.10;;;;;;5076181;28;20134;-78
2022/09/21 10:54:36;;;;;;;3.85;3.00;;;20.10;68.00;;;;;;5076098;28;20024;-77
2022/09/21 10:57:15;;;;;;;4.75;3.00;;;20.10;68.20;;;;;;5078027;28;20036;-77
2022/09/21 10:59:41;;;;;;;5.85;3.00;;;20.10;68.20;;;;;;5076020;28;20043;-77
2022/09/21 11:02:32;;;;;;;6.00;3.28;;;20.10;68.10;;;;;;5092371;28;20079;-77
2022/09/21 11:05:10;;;;;;;4.55;3.10;;;20.10;68.20;;;;;;5092477;28;20020;-78
2022/09/21 11:07:41;;;;;;;5.38;3.38;;;20.10;68.30;;;;;;5092434;28;20468;-78
2022/09/21 11:10:37;;;;;;;3.88;3.00;;;20.10;68.30;;;;;;5074326;28;20036;-77
2022/09/21 11:13:29;;;;;;;5.57;3.20;;;20.10;68.20;;;;;;5067021;28;20036;-77
2022/09/21 11:15:58;;;;;;;5.45;3.60;;;20.10;68.20;;;;;;5071149;28;20492;-77
2022/09/21 11:18:39;;;;;;;4.38;3.13;;;20.10;68.30;;;;;;5073070;28;20103;-77
2022/09/21 11:21:13;;;;;;;7.97;3.40;;;20.10;68.30;;;;;;5072005;28;20020;-77
2022/09/21 11:23:44;;;;;;;5.78;3.00;;;20.10;68.50;;;;;;5071755;28;20131;-78
2022/09/21 11:26:15;;;;;;;5.20;3.47;;;20.10;68.30;;;;;;5073154;28;20021;-78
2022/09/21 11:29:07;;;;;;;5.00;3.17;;;20.20;68.40;;;;;;5054850;28;20035;-77
2022/09/21 11:32:04;;;;;;;4.57;3.15;;;20.10;68.50;;;;;;5071776;28;20108;-78
2022/09/21 11:34:43;;;;;;;4.45;3.03;;;20.10;68.50;;;;;;5084045;28;20035;-78
2022/09/21 11:37:35;;;;;;;5.10;3.25;;;20.20;68.60;;;;;;5092892;28;20020;-78
2022/09/21 11:40:06;;;;;;;6.95;3.28;;;20.20;68.40;;;;;;5092853;28;20176;-78
2022/09/21 11:43:07;;;;;;;5.30;3.35;;;20.20;68.40;;;;;;5091702;28;20099;-78
2022/09/21 11:45:45;;;;;;;6.35;3.35;;;20.20;68.50;;;;;;5091663;28;20415;-78
2022/09/21 11:48:21;;;;;;;5.72;3.22;;;20.20;68.50;;;;;;5092028;28;20016;-77
2022/09/21 11:50:52;;;;;;;5.10;3.30;;;20.20;68.50;;;;;;5091591;28;20044;-77
2022/09/21 11:53:25;;;;;;;3.58;2.90;;;20.20;68.40;;;;;;5091715;28;20020;-77
2022/09/21 11:56:09;;;;;;;5.95;2.88;;;20.20;68.40;;;;;;5091528;28;20472;-77
2022/09/21 11:58:43;;;;;;;4.10;2.53;;;20.20;68.30;;;;;;5092848;28;20020;-77
2022/09/21 12:01:40;;;;;;;4.43;3.17;;;20.20;68.30;;;;;;5091340;28;20028;-77
2022/09/21 12:04:33;;;;;;;4.13;3.03;;;20.20;68.30;;;;;;5092856;28;20020;-79
2022/09/21 12:07:02;;;;;;;4.43;3.22;;;20.20;68.30;;;;;;5091905;28;20028;-77
2022/09/21 12:09:50;;;;;;;3.67;2.78;;;20.20;68.20;;;;;;5080278;28;20027;-78
2022/09/21 12:12:25;;;;;;;4.20;2.75;;;20.20;68.20;;;;;;5071354;28;20025;-78
2022/09/21 12:15:31;;;;;;;5.57;3.13;;;20.20;68.20;;;;;;5072252;28;20107;-78
2022/09/21 12:18:16;;;;;;;5.93;3.15;;;20.20;68.10;;;;;;5071346;28;20032;-78
2022/09/21 12:21:21;;;;;;;4.30;2.80;;;20.30;68.20;;;;;;5070946;28;20094;-78
2022/09/21 12:23:56;;;;;;;3.90;2.65;;;20.30;68.20;;;;;;5060193;28;20040;-78
2022/09/21 12:26:40;;;;;;;4.85;2.90;;;20.30;68.20;;;;;;5090575;28;20031;-77
2022/09/21 12:29:46;;;;;;;4.40;2.47;;;20.30;68.10;;;;;;5075615;28;20028;-77
2022/09/21 12:32:24;;;;;;;3.63;2.40;;;20.30;68.00;;;;;;5092142;28;20027;-78
2022/09/21 12:34:58;;;;;;;5.35;2.90;;;20.30;68.00;;;;;;5092622;28;20107;-78
2022/09/21 12:37:36;;;;;;;4.68;2.80;;;20.40;68.00;;;;;;5091334;28;20107;-77
2022/09/21 12:40:26;;;;;;;5.45;2.60;;;20.30;67.90;;;;;;5095089;28;20031;-77
2022/09/21 12:43:12;;;;;;;2.92;2.22;;;20.30;67.90;;;;;;5096623;28;20016;-78
2022/09/21 12:45:43;;;;;;;4.45;2.60;;;20.40;68.00;;;;;;5095405;28;20063;-77
2022/09/21 12:48:41;;;;;;;2.72;2.20;;;20.40;67.90;;;;;;5078837;28;20020;-78
2022/09/21 12:51:11;;;;;;;4.22;2.83;;;20.40;67.90;;;;;;5085463;28;20421;-79
2022/09/21 12:53:39;;;;;;;6.93;2.95;;;20.40;67.90;;;;;;5087065;28;20016;-78
2022/09/21 12:56:26;;;;;;;3.38;2.38;;;20.40;67.80;;;;;;5094286;28;20059;-77
2022/09/21 12:59:06;;;;;;;4.05;2.72;;;20.40;67.80;;;;;;5095098;28;20460;-78
2022/09/21 13:01:43;;;;;;;5.28;2.40;;;20.40;67.80;;;;;;5093067;28;20024;-78
2022/09/21 13:04:48;;;;;;;4.65;2.22;;;20.40;67.80;;;;;;5093856;28;20013;-78
2022/09/21 13:07:17;;;;;;;4.43;2.40;;;20.40;67.80;;;;;;5032158;28;20029;-78
2022/09/21 13:09:43;;;;;;;3.78;2.50;;;20.40;67.80;;;;;;5017730;28;20061;-77
2022/09/21 13:12:21;;;;;;;2.35;2.10;;;20.50;67.80;;;;;;4997477;28;20053;-78
2022/09/21 13:14:48;;;;;;;4.32;2.53;;;20.50;67.80;;;;;;4997633;28;20030;-78
2022/09/21 13:17:30;;;;;;;2.38;2.17;;;20.50;67.80;;;;;;4996355;28;20034;-78
2022/09/21 13:20:14;;;;;;;3.10;2.38;;;20.50;67.80;;;;;;4997772;28;20025;-78